createdAt,value
2019-03-03T00:02:18.421Z,100964.41
2019-03-03T00:04:49.373Z,100953.95
2019-03-03T00:07:20.279Z,100951.13
2019-03-03T00:09:51.204Z,100941.81
2019-03-03T00:12:22.110Z,100935.22
2019-03-03T00:14:53.037Z,100943.63
2019-03-03T00:17:23.939Z,100941.31
2019-03-03T00:19:54.905Z,100940.87
2019-03-03T00:22:25.813Z,100937.33
2019-03-03T00:24:56.742Z,100935.63
2019-03-03T00:27:29.265Z,100914.62
2019-03-03T00:30:00.262Z,100905.14
2019-03-03T00:32:31.149Z,100894.67
2019-03-03T00:35:02.879Z,100896.30
2019-03-03T00:37:47.349Z,100907.66
2019-03-03T00:40:22.619Z,100927.70
2019-03-03T00:42:55.155Z,100934.71
2019-03-03T00:45:33.554Z,100929.09
2019-03-03T00:48:23.661Z,100922.94
2019-03-03T00:50:56.243Z,100924.25
2019-03-03T00:53:34.695Z,100916.52
2019-03-03T00:56:10.365Z,100920.32
2019-03-03T00:58:45.802Z,100917.35
2019-03-03T01:01:21.304Z,100907.87
2019-03-03T01:03:53.845Z,100907.37
2019-03-03T01:06:32.581Z,100904.40
2019-03-03T01:09:06.555Z,100907.37
2019-03-03T01:11:45.179Z,100907.24
2019-03-03T01:14:20.390Z,100901.94
2019-03-03T01:16:52.991Z,100904.40
2019-03-03T01:19:25.491Z,100899.16
2019-03-03T01:22:05.765Z,100888.20
2019-03-03T01:24:44.275Z,100894.67
2019-03-03T01:27:15.191Z,100893.88
2019-03-03T01:29:46.092Z,100884.20
2019-03-03T01:32:17.011Z,100893.43
2019-03-03T01:34:47.899Z,100888.06
2019-03-03T01:37:18.840Z,100891.72
2019-03-03T01:39:49.805Z,100890.47
2019-03-03T01:42:20.728Z,100883.01
2019-03-03T01:44:51.622Z,100875.02
2019-03-03T01:47:22.534Z,100883.02
2019-03-03T01:49:53.429Z,100888.92
2019-03-03T01:52:24.445Z,100887.98
2019-03-03T01:54:55.411Z,100880.19
2019-03-03T01:57:26.328Z,100885.16
2019-03-03T01:59:57.287Z,100884.41
2019-03-03T02:02:28.213Z,100876.23
2019-03-03T02:04:59.024Z,100881.37
2019-03-03T02:07:29.954Z,100884.08
2019-03-03T02:10:00.850Z,100880.22
2019-03-03T02:12:31.776Z,100887.70
2019-03-03T02:15:02.681Z,100884.45
2019-03-03T02:17:33.586Z,100881.95
2019-03-03T02:20:06.485Z,100880.29
2019-03-03T02:22:39.098Z,100868.53
2019-03-03T02:25:12.344Z,100861.58
2019-03-03T02:27:43.271Z,100860.34
2019-03-03T02:30:21.353Z,100846.34
2019-03-03T02:32:52.277Z,100842.05
2019-03-03T02:35:23.173Z,100820.70
2019-03-03T02:37:54.133Z,100818.53
2019-03-03T02:40:25.036Z,100815.91
2019-03-03T02:42:55.962Z,100805.05
2019-03-03T02:45:26.858Z,100809.89
2019-03-03T02:47:57.789Z,100793.50
2019-03-03T02:50:28.707Z,100789.37
2019-03-03T02:52:59.649Z,100786.77
2019-03-03T02:55:30.545Z,100782.10
2019-03-03T02:58:01.477Z,100786.46
2019-03-03T03:00:32.437Z,100784.95
2019-03-03T03:03:05.001Z,100784.14
2019-03-03T03:05:37.527Z,100782.92
2019-03-03T03:08:15.956Z,100783.43
2019-03-03T03:10:51.451Z,100783.13
2019-03-03T03:13:36.046Z,100778.44
2019-03-03T03:16:08.587Z,100771.17
2019-03-03T03:18:41.150Z,100761.69
2019-03-03T03:21:22.451Z,100758.40
2019-03-03T03:24:01.033Z,100754.14
2019-03-03T03:26:49.855Z,100749.05
2019-03-03T03:29:23.346Z,100738.33
2019-03-03T03:31:55.879Z,100719.68
2019-03-03T03:34:28.464Z,100720.40
2019-03-03T03:37:01.175Z,100722.03
2019-03-03T03:39:33.766Z,100719.34
2019-03-03T03:42:12.310Z,100719.78
2019-03-03T03:44:54.086Z,100721.09
2019-03-03T03:47:35.856Z,100717.53
2019-03-03T03:50:12.923Z,100717.67
2019-03-03T03:53:00.662Z,100710.97
2019-03-03T03:55:36.142Z,100697.56
2019-03-03T03:58:14.769Z,100700.75
2019-03-03T04:00:47.335Z,100694.09
2019-03-03T04:03:23.134Z,100681.40
2019-03-03T04:06:05.077Z,100681.31
2019-03-03T04:08:53.832Z,100683.36
2019-03-03T04:11:44.525Z,100678.34
2019-03-03T04:14:35.585Z,100676.05
2019-03-03T04:17:23.253Z,100662.58
2019-03-03T04:20:04.673Z,100665.09
2019-03-03T04:22:37.263Z,100654.84
2019-03-03T04:25:18.756Z,100652.42
2019-03-03T04:28:10.421Z,100645.73
2019-03-03T04:30:48.742Z,100646.88
2019-03-03T04:33:24.008Z,100640.35
2019-03-03T04:36:14.871Z,100629.58
2019-03-03T04:38:47.425Z,100624.63
2019-03-03T04:41:19.984Z,100633.69
2019-03-03T04:43:58.420Z,100626.95
2019-03-03T04:46:33.928Z,100631.16
2019-03-03T04:49:09.201Z,100622.73
2019-03-03T04:51:44.450Z,100624.52
2019-03-03T04:54:26.210Z,100616.03
2019-03-03T04:56:58.750Z,100610.42
2019-03-03T04:59:43.570Z,100600.66
2019-03-03T05:02:16.112Z,100598.86
2019-03-03T05:04:49.511Z,100590.54
2019-03-03T05:07:28.275Z,100582.87
2019-03-03T05:10:00.763Z,100586.03
2019-03-03T05:12:48.242Z,100582.52
2019-03-03T05:15:24.244Z,100577.91
2019-03-03T05:18:02.515Z,100575.36
2019-03-03T05:20:50.452Z,100572.51
2019-03-03T05:23:21.350Z,100569.78
2019-03-03T05:25:52.281Z,100566.65
2019-03-03T05:28:23.183Z,100563.77
2019-03-03T05:30:54.309Z,100562.73
2019-03-03T05:33:26.895Z,100564.55
2019-03-03T05:35:57.831Z,100557.23
2019-03-03T05:38:28.738Z,100557.09
2019-03-03T05:40:59.722Z,100566.23
2019-03-03T05:43:30.623Z,100560.11
2019-03-03T05:46:01.594Z,100566.86
2019-03-03T05:48:32.502Z,100562.45
2019-03-03T05:51:03.428Z,100564.22
2019-03-03T05:53:34.325Z,100550.55
2019-03-03T05:56:05.248Z,100545.32
2019-03-03T05:58:36.140Z,100545.66
2019-03-03T06:01:07.880Z,100531.38
2019-03-03T06:03:38.780Z,100534.67
2019-03-03T06:06:09.712Z,100532.02
2019-03-03T06:08:40.613Z,100536.03
2019-03-03T06:11:11.540Z,100519.55
2019-03-03T06:13:42.436Z,100516.75
2019-03-03T06:16:14.419Z,100518.28
2019-03-03T06:18:45.320Z,100511.41
2019-03-03T06:21:16.249Z,100504.34
2019-03-03T06:23:47.161Z,100515.86
2019-03-03T06:26:18.994Z,100508.53
2019-03-03T06:28:49.902Z,100514.70
2019-03-03T06:31:21.783Z,100516.69
2019-03-03T06:33:53.579Z,100506.62
2019-03-03T06:36:24.522Z,100492.08
2019-03-03T06:38:55.437Z,100484.89
2019-03-03T06:41:26.362Z,100482.16
2019-03-03T06:43:57.269Z,100475.34
2019-03-03T06:46:28.235Z,100471.23
2019-03-03T06:48:59.143Z,100464.03
2019-03-03T06:51:30.937Z,100457.70
2019-03-03T06:54:01.849Z,100461.88
2019-03-03T06:56:32.781Z,100445.11
2019-03-03T06:59:03.752Z,100448.79
2019-03-03T07:01:34.695Z,100444.73
2019-03-03T07:04:05.606Z,100440.69
2019-03-03T07:06:36.542Z,100434.09
2019-03-03T07:09:07.537Z,100429.55
2019-03-03T07:11:38.459Z,100435.45
2019-03-03T07:14:09.353Z,100438.31
2019-03-03T07:16:41.151Z,100423.53
2019-03-03T07:19:12.054Z,100421.94
2019-03-03T07:21:42.988Z,100418.41
2019-03-03T07:24:13.898Z,100421.27
2019-03-03T07:26:44.827Z,100415.91
2019-03-03T07:29:15.805Z,100410.66
2019-03-03T07:31:46.742Z,100405.79
2019-03-03T07:34:18.552Z,100397.36
2019-03-03T07:36:52.690Z,100393.22
2019-03-03T07:39:23.593Z,100394.53
2019-03-03T07:41:55.469Z,100388.23
2019-03-03T07:44:26.379Z,100382.98
2019-03-03T07:46:58.259Z,100384.48
2019-03-03T07:49:29.163Z,100383.49
2019-03-03T07:52:00.097Z,100370.26
2019-03-03T07:54:31.028Z,100364.18
2019-03-03T07:57:02.829Z,100370.95
2019-03-03T07:59:33.736Z,100363.81
2019-03-03T08:02:05.534Z,100357.72
2019-03-03T08:04:36.440Z,100363.84
2019-03-03T08:07:07.372Z,100358.23
2019-03-03T08:09:38.301Z,100349.23
2019-03-03T08:12:09.276Z,100353.09
2019-03-03T08:14:40.179Z,100346.16
2019-03-03T08:17:11.126Z,100345.02
2019-03-03T08:19:42.117Z,100337.84
2019-03-03T08:22:13.115Z,100331.34
2019-03-03T08:24:44.016Z,100327.88
2019-03-03T08:27:14.944Z,100320.53
2019-03-03T08:29:45.856Z,100303.44
2019-03-03T08:32:16.809Z,100306.98
2019-03-03T08:34:49.288Z,100297.44
2019-03-03T08:37:20.216Z,100293.55
2019-03-03T08:39:51.121Z,100284.32
2019-03-03T08:42:33.454Z,100284.06
2019-03-03T08:45:23.227Z,100281.88
2019-03-03T08:47:56.636Z,100272.27
2019-03-03T08:50:33.452Z,100272.41
2019-03-03T08:53:14.922Z,100279.59
2019-03-03T08:56:04.318Z,100274.23
2019-03-03T08:58:53.437Z,100280.84
2019-03-03T09:01:26.006Z,100275.88
2019-03-03T09:04:08.325Z,100273.64
2019-03-03T09:06:40.873Z,100268.70
2019-03-03T09:09:15.967Z,100260.34
2019-03-03T09:11:48.517Z,100262.56
2019-03-03T09:14:21.112Z,100262.87
2019-03-03T09:17:05.528Z,100271.81
2019-03-03T09:19:38.934Z,100268.07
2019-03-03T09:22:11.486Z,100273.98
2019-03-03T09:24:59.043Z,100275.50
2019-03-03T09:27:34.334Z,100278.95
2019-03-03T09:30:12.616Z,100268.34
2019-03-03T09:33:00.124Z,100257.98
2019-03-03T09:35:34.552Z,100245.81
2019-03-03T09:38:07.334Z,100258.90
2019-03-03T09:40:45.650Z,100257.74
2019-03-03T09:43:21.184Z,100249.75
2019-03-03T09:46:08.846Z,100248.27
2019-03-03T09:48:56.189Z,100240.60
2019-03-03T09:51:48.010Z,100226.77
2019-03-03T09:54:23.728Z,100222.72
2019-03-03T09:57:12.577Z,100218.30
2019-03-03T09:59:45.148Z,100217.59
2019-03-03T10:02:29.679Z,100207.63
2019-03-03T10:05:05.141Z,100200.50
2019-03-03T10:07:53.894Z,100206.16
2019-03-03T10:10:26.448Z,100205.72
2019-03-03T10:13:01.976Z,100194.00
2019-03-03T10:15:43.528Z,100192.97
2019-03-03T10:18:25.322Z,100191.55
2019-03-03T10:21:13.077Z,100187.78
2019-03-03T10:24:04.512Z,100180.46
2019-03-03T10:26:37.071Z,100186.01
2019-03-03T10:29:10.060Z,100177.83
2019-03-03T10:31:45.601Z,100173.98
2019-03-03T10:34:30.292Z,100163.73
2019-03-03T10:37:19.086Z,100160.33
2019-03-03T10:39:56.510Z,100160.72
2019-03-03T10:42:31.769Z,100151.50
2019-03-03T10:45:04.381Z,100146.63
2019-03-03T10:47:43.145Z,100145.48
2019-03-03T10:50:18.678Z,100146.05
2019-03-03T10:52:57.205Z,100142.65
2019-03-03T10:55:30.608Z,100145.83
2019-03-03T10:58:12.478Z,100138.52
2019-03-03T11:01:03.057Z,100135.70
2019-03-03T11:03:35.642Z,100125.06
2019-03-03T11:06:20.209Z,100127.98
2019-03-03T11:09:01.847Z,100126.66
2019-03-03T11:11:38.411Z,100122.08
2019-03-03T11:14:17.481Z,100111.83
2019-03-03T11:17:02.026Z,100110.22
2019-03-03T11:19:46.676Z,100101.58
2019-03-03T11:22:34.321Z,100108.23
2019-03-03T11:25:12.097Z,100095.56
2019-03-03T11:27:48.448Z,100103.38
2019-03-03T11:30:23.713Z,100102.23
2019-03-03T11:33:12.362Z,100089.89
2019-03-03T11:35:45.046Z,100088.67
2019-03-03T11:38:32.953Z,100077.64
2019-03-03T11:41:13.009Z,100070.94
2019-03-03T11:43:49.872Z,100071.13
2019-03-03T11:46:22.472Z,100078.77
2019-03-03T11:49:04.298Z,100075.77
2019-03-03T11:51:45.592Z,100074.95
2019-03-03T11:54:30.342Z,100073.85
2019-03-03T11:57:02.887Z,100080.23
2019-03-03T11:59:38.241Z,100066.25
2019-03-03T12:02:22.813Z,100071.70
2019-03-03T12:05:04.378Z,100067.28
2019-03-03T12:07:48.883Z,100066.01
2019-03-03T12:10:24.181Z,100052.33
2019-03-03T12:12:59.697Z,100039.95
2019-03-03T12:15:41.111Z,100042.96
2019-03-03T12:18:13.654Z,100045.77
2019-03-03T12:20:49.221Z,100036.93
2019-03-03T12:23:24.488Z,100020.92
2019-03-03T12:26:13.393Z,100029.75
2019-03-03T12:28:58.205Z,100018.66
2019-03-03T12:31:51.200Z,100012.19
2019-03-03T12:34:23.759Z,100012.47
2019-03-03T12:36:57.126Z,100014.91
2019-03-03T12:39:40.070Z,100010.93
2019-03-03T12:42:12.637Z,99996.77
2019-03-03T12:44:48.104Z,99998.66
2019-03-03T12:47:30.524Z,99993.09
2019-03-03T12:50:11.981Z,100000.25
2019-03-03T12:52:50.511Z,99999.95
2019-03-03T12:55:23.046Z,99991.19
2019-03-03T12:57:58.711Z,99989.76
2019-03-03T13:00:46.500Z,99977.20
2019-03-03T13:03:22.210Z,99989.30
2019-03-03T13:05:54.727Z,99983.41
2019-03-03T13:08:27.273Z,99976.73
2019-03-03T13:11:05.906Z,99965.50
2019-03-03T13:13:41.471Z,99962.45
2019-03-03T13:16:30.454Z,99967.72
2019-03-03T13:19:03.845Z,99959.30
2019-03-03T13:21:39.339Z,99962.41
2019-03-03T13:24:14.859Z,99954.03
2019-03-03T13:27:02.668Z,99957.91
2019-03-03T13:29:35.228Z,99954.50
2019-03-03T13:32:10.774Z,99957.13
2019-03-03T13:34:44.174Z,99951.44
2019-03-03T13:37:22.662Z,99964.41
2019-03-03T13:40:12.151Z,99961.39
2019-03-03T13:42:47.603Z,99949.38
2019-03-03T13:45:18.542Z,99948.02
2019-03-03T13:47:49.433Z,99953.83
2019-03-03T13:50:21.200Z,99947.05
2019-03-03T13:52:52.118Z,99943.58
2019-03-03T13:55:23.152Z,99950.70
2019-03-03T13:57:54.046Z,99945.43
2019-03-03T14:00:25.059Z,99951.86
2019-03-03T14:02:55.964Z,99955.81
2019-03-03T14:05:27.710Z,99957.86
2019-03-03T14:07:58.603Z,99948.80
2019-03-03T14:10:29.542Z,99945.98
2019-03-03T14:13:00.438Z,99938.15
2019-03-03T14:15:31.369Z,99945.36
2019-03-03T14:18:02.268Z,99937.38
2019-03-03T14:21:04.070Z,99945.16
2019-03-03T14:23:35.076Z,99939.11
2019-03-03T14:26:06.074Z,99934.42
2019-03-03T14:28:37.034Z,99938.38
2019-03-03T14:31:07.953Z,99934.11
2019-03-03T14:33:38.867Z,99937.95
2019-03-03T14:36:10.630Z,99929.47
2019-03-03T14:38:41.593Z,99936.52
2019-03-03T14:41:13.371Z,99929.19
2019-03-03T14:43:44.338Z,99929.11
2019-03-03T14:46:15.849Z,99929.11
2019-03-03T14:48:46.766Z,99928.07
2019-03-03T14:51:18.691Z,99931.25
2019-03-03T14:53:49.687Z,99929.62
2019-03-03T14:56:21.393Z,99920.39
2019-03-03T14:58:52.299Z,99927.36
2019-03-03T15:01:23.235Z,99920.58
2019-03-03T15:03:54.161Z,99911.38
2019-03-03T15:06:27.730Z,99901.34
2019-03-03T15:08:58.719Z,99908.28
2019-03-03T15:11:29.647Z,99906.30
2019-03-03T15:14:00.972Z,99904.66
2019-03-03T15:16:32.015Z,99914.23
2019-03-03T15:19:02.982Z,99918.72
2019-03-03T15:21:34.958Z,99905.92
2019-03-03T15:24:05.934Z,99912.11
2019-03-03T15:26:36.931Z,99901.56
2019-03-03T15:29:07.919Z,99899.47
2019-03-03T15:31:39.244Z,99901.64
2019-03-03T15:34:10.140Z,99900.23
2019-03-03T15:36:42.106Z,99900.88
2019-03-03T15:39:13.011Z,99898.12
2019-03-03T15:41:45.593Z,99893.44
2019-03-03T15:44:16.497Z,99904.20
2019-03-03T15:46:47.571Z,99902.28
2019-03-03T15:49:18.481Z,99895.34
2019-03-03T15:51:51.136Z,99891.74
2019-03-03T15:54:22.038Z,99891.86
2019-03-03T15:56:52.984Z,99886.03
2019-03-03T15:59:23.877Z,99881.81
2019-03-03T16:01:54.798Z,99879.30
2019-03-03T16:04:25.704Z,99870.15
2019-03-03T16:06:57.682Z,99885.15
2019-03-03T16:09:28.579Z,99880.75
2019-03-03T16:11:59.519Z,99877.12
2019-03-03T16:14:30.819Z,99880.02
2019-03-03T16:17:01.785Z,99870.91
2019-03-03T16:19:32.687Z,99871.50
2019-03-03T16:22:04.678Z,99881.24
2019-03-03T16:24:35.517Z,99874.86
2019-03-03T16:27:06.443Z,99879.39
2019-03-03T16:29:37.347Z,99875.88
2019-03-03T16:32:08.281Z,99869.95
2019-03-03T16:34:39.198Z,99874.22
2019-03-03T16:37:11.124Z,99870.13
2019-03-03T16:39:42.020Z,99869.38
2019-03-03T16:42:13.789Z,99873.15
2019-03-03T16:44:44.692Z,99886.91
2019-03-03T16:47:15.607Z,99882.80
2019-03-03T16:49:47.937Z,99876.41
2019-03-03T16:52:19.716Z,99880.94
2019-03-03T16:54:51.328Z,99881.25
2019-03-03T16:57:22.240Z,99888.80
2019-03-03T16:59:53.214Z,99874.98
2019-03-03T17:02:24.138Z,99882.72
2019-03-03T17:04:55.024Z,99877.07
2019-03-03T17:07:26.889Z,99868.81
2019-03-03T17:09:57.782Z,99872.38
2019-03-03T17:12:28.713Z,99879.55
2019-03-03T17:14:59.613Z,99882.75
2019-03-03T17:17:30.545Z,99888.10
2019-03-03T17:20:01.496Z,99890.19
2019-03-03T17:22:33.244Z,99884.70
2019-03-03T17:25:05.878Z,99884.23
2019-03-03T17:27:36.800Z,99885.00
2019-03-03T17:30:10.936Z,99892.05
2019-03-03T17:32:41.855Z,99886.05
2019-03-03T17:35:14.271Z,99892.91
2019-03-03T17:37:46.141Z,99898.28
2019-03-03T17:40:21.297Z,99894.80
2019-03-03T17:42:53.081Z,99901.95
2019-03-03T17:45:24.982Z,99909.47
2019-03-03T17:48:02.693Z,99905.25
2019-03-03T17:50:36.847Z,99907.22
2019-03-03T17:53:08.721Z,99904.04
2019-03-03T17:55:39.637Z,99904.97
2019-03-03T17:58:10.803Z,99906.67
2019-03-03T18:00:43.819Z,99897.66
2019-03-03T18:03:14.751Z,99900.67
2019-03-03T18:05:45.661Z,99898.45
2019-03-03T18:08:17.440Z,99904.45
2019-03-03T18:10:48.413Z,99910.46
2019-03-03T18:13:19.346Z,99905.39
2019-03-03T18:15:50.253Z,99909.33
2019-03-03T18:18:21.214Z,99909.72
2019-03-03T18:20:52.118Z,99917.81
2019-03-03T18:23:23.849Z,99913.77
2019-03-03T18:25:54.769Z,99914.05
2019-03-03T18:28:25.679Z,99914.25
2019-03-03T18:30:56.576Z,99912.38
2019-03-03T18:33:27.496Z,99911.06
2019-03-03T18:35:58.460Z,99915.78
2019-03-03T18:38:30.308Z,99912.95
2019-03-03T18:41:01.218Z,99909.94
2019-03-03T18:43:33.736Z,99911.25
2019-03-03T18:46:05.818Z,99910.70
2019-03-03T18:48:36.819Z,99916.70
2019-03-03T18:51:07.716Z,99910.70
2019-03-03T18:53:39.503Z,99905.62
2019-03-03T18:56:10.412Z,99917.86
2019-03-03T18:58:41.410Z,99915.80
2019-03-03T19:01:12.318Z,99915.06
2019-03-03T19:03:43.277Z,99913.55
2019-03-03T19:06:14.169Z,99912.45
2019-03-03T19:08:45.118Z,99916.39
2019-03-03T19:11:16.031Z,99908.69
2019-03-03T19:13:46.961Z,99910.47
2019-03-03T19:16:17.885Z,99913.56
2019-03-03T19:18:48.916Z,99914.52
2019-03-03T19:21:19.817Z,99916.19
2019-03-03T19:23:51.642Z,99914.89
2019-03-03T19:26:22.608Z,99913.97
2019-03-03T19:28:53.553Z,99912.92
2019-03-03T19:31:24.461Z,99912.81
2019-03-03T19:33:57.654Z,99918.08
2019-03-03T19:36:28.578Z,99922.02
2019-03-03T19:39:00.485Z,99924.47
2019-03-03T19:41:31.398Z,99924.47
2019-03-03T19:44:03.188Z,99925.22
2019-03-03T19:46:34.174Z,99924.36
2019-03-03T19:49:05.189Z,99931.05
2019-03-03T19:51:36.122Z,99930.94
2019-03-03T19:54:07.169Z,99927.84
2019-03-03T19:56:38.099Z,99933.57
2019-03-03T19:59:09.064Z,99929.91
2019-03-03T20:01:40.117Z,99933.28
2019-03-03T20:04:11.048Z,99921.94
2019-03-03T20:06:41.981Z,99919.19
2019-03-03T20:09:15.592Z,99914.50
2019-03-03T20:11:47.872Z,99908.20
2019-03-03T20:14:18.982Z,99909.41
2019-03-03T20:16:50.530Z,99911.46
2019-03-03T20:19:21.481Z,99910.53
2019-03-03T20:21:52.407Z,99906.40
2019-03-03T20:24:24.207Z,99912.68
2019-03-03T20:26:55.121Z,99904.78
2019-03-03T20:29:26.109Z,99909.36
2019-03-03T20:31:57.023Z,99902.67
2019-03-03T20:34:28.019Z,99903.33
2019-03-03T20:36:58.945Z,99904.45
2019-03-03T20:39:30.755Z,99905.09
2019-03-03T20:42:01.694Z,99900.56
2019-03-03T20:44:33.443Z,99893.32
2019-03-03T20:47:04.357Z,99894.06
2019-03-03T20:49:35.323Z,99897.81
2019-03-03T20:52:06.856Z,99892.55
2019-03-03T20:54:37.784Z,99883.11
2019-03-03T20:57:13.599Z,99883.84
2019-03-03T20:59:45.719Z,99875.02
2019-03-03T21:02:16.683Z,99875.02
2019-03-03T21:04:49.287Z,99875.48
2019-03-03T21:07:23.148Z,99868.81
2019-03-03T21:09:54.141Z,99873.23
2019-03-03T21:12:25.143Z,99860.15
2019-03-03T21:14:56.073Z,99865.22
2019-03-03T21:17:27.019Z,99857.13
2019-03-03T21:19:57.954Z,99855.23
2019-03-03T21:22:28.898Z,99857.75
2019-03-03T21:24:59.897Z,99853.59
2019-03-03T21:27:31.799Z,99856.50
2019-03-03T21:30:02.716Z,99858.20
2019-03-03T21:32:33.679Z,99857.97
2019-03-03T21:35:07.005Z,99852.51
2019-03-03T21:37:38.047Z,99845.08
2019-03-03T21:40:26.374Z,99841.77
2019-03-03T21:42:58.321Z,99839.88
2019-03-03T21:45:30.805Z,99842.31
2019-03-03T21:48:01.771Z,99842.86
2019-03-03T21:50:32.876Z,99838.91
2019-03-03T21:53:05.499Z,99844.09
2019-03-03T21:55:36.459Z,99829.92
2019-03-03T21:58:08.913Z,99829.06
2019-03-03T22:00:41.522Z,99835.39
2019-03-03T22:03:12.473Z,99827.34
2019-03-03T22:05:43.401Z,99824.47
2019-03-03T22:08:14.327Z,99821.95
2019-03-03T22:10:45.228Z,99826.68
2019-03-03T22:13:17.027Z,99834.55
2019-03-03T22:15:47.935Z,99828.74
2019-03-03T22:18:18.873Z,99829.67
2019-03-03T22:20:49.784Z,99822.36
2019-03-03T22:23:20.767Z,99821.47
2019-03-03T22:25:51.644Z,99811.25
2019-03-03T22:28:23.492Z,99814.42
2019-03-03T22:30:54.383Z,99816.44
2019-03-03T22:33:25.299Z,99811.75
2019-03-03T22:35:56.198Z,99810.05
2019-03-03T22:38:27.132Z,99811.37
2019-03-03T22:40:58.037Z,99809.31
2019-03-03T22:43:29.845Z,99808.85
2019-03-03T22:46:00.743Z,99801.88
2019-03-03T22:48:31.687Z,99802.73
2019-03-03T22:51:02.659Z,99804.63
2019-03-03T22:53:33.605Z,99799.56
2019-03-03T22:56:04.583Z,99807.11
2019-03-03T22:58:35.554Z,99798.94
2019-03-03T23:01:12.365Z,99799.52
2019-03-03T23:03:46.210Z,99795.66
2019-03-03T23:06:38.196Z,99797.81
2019-03-03T23:09:14.875Z,99796.23
2019-03-03T23:12:19.223Z,99785.43
2019-03-03T23:15:00.057Z,99788.17
2019-03-03T23:17:53.393Z,99783.49
2019-03-03T23:20:29.899Z,99778.70
2019-03-03T23:23:06.591Z,99769.33
2019-03-03T23:25:53.651Z,99767.25
2019-03-03T23:28:24.654Z,99766.04
2019-03-03T23:30:55.590Z,99764.37
2019-03-03T23:33:26.498Z,99765.69
2019-03-03T23:35:57.432Z,99764.45
2019-03-03T23:38:28.330Z,99758.34
2019-03-03T23:40:59.260Z,99754.40
2019-03-03T23:43:30.152Z,99749.36
2019-03-03T23:46:03.868Z,99742.78
2019-03-03T23:48:34.764Z,99735.83
2019-03-03T23:51:05.691Z,99728.90
2019-03-03T23:53:36.589Z,99734.16
2019-03-03T23:56:07.515Z,99733.20
2019-03-03T23:58:38.417Z,99731.88
